PWSweather.com
Personal Weather Stations
Station Observations
ILAZIOPO4
Tetto, PomeziaIT 00040

TettoPomeziaIT 00040

Lat: 41.6674809, Lon: 12.5080234

Elevation: 85

Station Type: Davis Vantage Pro2 Plus

http://pomeziameteo.it

High Low Average
Temperature 53.8°F12.1°C 40.2°F4.6°C 48.0°F8.9°C
Dew Point 49.8°F9.9°C 34.5°F1.4°C 39.8°F4.3°C
Winds 19.0 mph 30.6 kmh Calm Calm 5.0 mph SW8.0 kmh SW
Wind Gusts 21.0 mph33.8 kmh -- 9.0 mph14.5 kmh
Humidity 90% 51% 74%
Pressure 30.05 in1017.6 mb 29.73 in1006.8 mb -
Precipitation 0.05 in1.3 mm - -
Hour Temp Dew Point Humidity Winds Wind Gusts Pressure Precip Precip Rate Daily Precip Total
12:00 AM 46.2°F7.9°C 38.3°F3.5°C 74% 4.0 mph NW6.4 kmh NW 9.0 mph14.5 kmh 30.01 in1016.3 mb 0.00 in0.0 mm 0.00 in0.0 mm 0.05 in1.3 mm
12:05 AM 46.1°F7.8°C 38.2°F3.4°C 74% 2.0 mph NW3.2 kmh NW 9.0 mph14.5 kmh 30.01 in1016.3 mb 0.00 in0.0 mm 0.00 in0.0 mm 0.00 in0.0 mm
12:10 AM 46.0°F7.8°C 38.1°F3.4°C 74% 4.0 mph NW6.4 kmh NW 6.0 mph9.7 kmh 30.02 in1016.6 mb 0.00 in0.0 mm 0.00 in0.0 mm 0.00 in0.0 mm
12:15 AM 45.8°F7.7°C 37.9°F3.3°C 74% 3.0 mph NW4.8 kmh NW 8.0 mph12.9 kmh 30.02 in1016.6 mb 0.00 in0.0 mm 0.00 in0.0 mm 0.00 in0.0 mm
12:20 AM 45.8°F7.7°C 37.9°F3.3°C 74% 3.0 mph NW4.8 kmh NW 9.0 mph14.5 kmh 30.02 in1016.6 mb 0.00 in0.0 mm 0.00 in0.0 mm 0.00 in0.0 mm
12:25 AM 45.9°F7.7°C 38.0°F3.3°C 74% 5.0 mph NNW8.0 kmh NNW 9.0 mph14.5 kmh 30.02 in1016.6 mb 0.00 in0.0 mm 0.00 in0.0 mm 0.00 in0.0 mm
12:30 AM 45.8°F7.7°C 37.9°F3.3°C 74% 8.0 mph NW12.9 kmh NW 9.0 mph14.5 kmh 30.02 in1016.6 mb 0.00 in0.0 mm 0.00 in0.0 mm 0.00 in0.0 mm
12:35 AM 45.6°F7.6°C 37.7°F3.2°C 74% 4.0 mph NNW6.4 kmh NNW 9.0 mph14.5 kmh 30.02 in1016.6 mb 0.00 in0.0 mm 0.00 in0.0 mm 0.00 in0.0 mm
12:40 AM 45.5°F7.5°C 37.7°F3.2°C 74% 3.0 mph NW4.8 kmh NW 8.0 mph12.9 kmh 30.02 in1016.6 mb 0.00 in0.0 mm 0.00 in0.0 mm 0.00 in0.0 mm
12:45 AM 45.4°F7.4°C 37.9°F3.3°C 75% 4.0 mph W6.4 kmh W 8.0 mph12.9 kmh 30.02 in1016.6 mb 0.00 in0.0 mm 0.00 in0.0 mm 0.00 in0.0 mm
12:50 AM 45.4°F7.4°C 37.9°F3.3°C 75% 3.0 mph NW4.8 kmh NW 6.0 mph9.7 kmh 30.02 in1016.6 mb 0.00 in0.0 mm 0.00 in0.0 mm 0.00 in0.0 mm
12:55 AM 45.3°F7.4°C 37.8°F3.2°C 75% 5.0 mph NW8.0 kmh NW 7.0 mph11.3 kmh 30.02 in1016.6 mb 0.00 in0.0 mm 0.00 in0.0 mm 0.00 in0.0 mm
01:00 AM 45.2°F7.3°C 37.7°F3.2°C 75% 1.0 mph NW1.6 kmh NW 6.0 mph9.7 kmh 30.02 in1016.6 mb 0.00 in0.0 mm 0.00 in0.0 mm 0.00 in0.0 mm
01:05 AM 45.1°F7.3°C 37.6°F3.1°C 75% 1.0 mph NW1.6 kmh NW 4.0 mph6.4 kmh 30.03 in1016.9 mb 0.00 in0.0 mm 0.00 in0.0 mm 0.00 in0.0 mm
01:10 AM 44.9°F7.2°C 37.8°F3.2°C 76% 3.0 mph NW4.8 kmh NW 3.0 mph4.8 kmh 30.03 in1016.9 mb 0.00 in0.0 mm 0.00 in0.0 mm 0.00 in0.0 mm
01:15 AM 44.7°F7.1°C 37.6°F3.1°C 76% 5.0 mph NW8.0 kmh NW 6.0 mph9.7 kmh 30.04 in1017.3 mb 0.00 in0.0 mm 0.00 in0.0 mm 0.00 in0.0 mm
01:20 AM 44.5°F6.9°C 37.4°F3.0°C 76% 5.0 mph NW8.0 kmh NW 8.0 mph12.9 kmh 30.04 in1017.3 mb 0.00 in0.0 mm 0.00 in0.0 mm 0.00 in0.0 mm
01:25 AM 44.3°F6.8°C 37.5°F3.1°C 77% 8.0 mph NW12.9 kmh NW 8.0 mph12.9 kmh 30.04 in1017.3 mb 0.00 in0.0 mm 0.00 in0.0 mm 0.00 in0.0 mm
01:30 AM 44.4°F6.9°C 37.9°F3.3°C 78% 5.0 mph NW8.0 kmh NW 9.0 mph14.5 kmh 30.03 in1016.9 mb 0.00 in0.0 mm 0.00 in0.0 mm 0.00 in0.0 mm
01:35 AM 44.5°F6.9°C 38.0°F3.3°C 78% 6.0 mph N9.7 kmh N 8.0 mph12.9 kmh 30.04 in1017.3 mb 0.00 in0.0 mm 0.00 in0.0 mm 0.00 in0.0 mm
01:40 AM 44.4°F6.9°C 37.9°F3.3°C 78% 3.0 mph W4.8 kmh W 10.0 mph16.1 kmh 30.04 in1017.3 mb 0.00 in0.0 mm 0.00 in0.0 mm 0.00 in0.0 mm
01:45 AM 44.3°F6.8°C 37.8°F3.2°C 78% 3.0 mph WNW4.8 kmh WNW 9.0 mph14.5 kmh 30.04 in1017.3 mb 0.00 in0.0 mm 0.00 in0.0 mm 0.00 in0.0 mm
01:50 AM 44.1°F6.7°C 37.6°F3.1°C 78% 6.0 mph NW9.7 kmh NW 7.0 mph11.3 kmh 30.05 in1017.6 mb 0.00 in0.0 mm 0.00 in0.0 mm 0.00 in0.0 mm
01:55 AM 44.0°F6.7°C 37.5°F3.1°C 78% 2.0 mph SW3.2 kmh SW 7.0 mph11.3 kmh 30.05 in1017.6 mb 0.00 in0.0 mm 0.00 in0.0 mm 0.00 in0.0 mm
02:00 AM 43.7°F6.5°C 37.2°F2.9°C 78% 2.0 mph NW3.2 kmh NW 5.0 mph8.0 kmh 30.05 in1017.6 mb 0.00 in0.0 mm 0.00 in0.0 mm 0.00 in0.0 mm
02:05 AM 43.5°F6.4°C 37.4°F3.0°C 79% 4.0 mph NW6.4 kmh NW 10.0 mph16.1 kmh 30.05 in1017.6 mb 0.00 in0.0 mm 0.00 in0.0 mm 0.00 in0.0 mm
02:10 AM 43.2°F6.2°C 37.1°F2.8°C 79% Calm Calm 7.0 mph11.3 kmh 30.05 in1017.6 mb 0.00 in0.0 mm 0.00 in0.0 mm 0.00 in0.0 mm
02:15 AM 43.1°F6.2°C 37.3°F2.9°C 80% 1.0 mph WNW1.6 kmh WNW 6.0 mph9.7 kmh 30.05 in1017.6 mb 0.00 in0.0 mm 0.00 in0.0 mm 0.00 in0.0 mm
02:20 AM 43.1°F6.2°C 37.3°F2.9°C 80% 5.0 mph NW8.0 kmh NW 6.0 mph9.7 kmh 30.04 in1017.3 mb 0.00 in0.0 mm 0.00 in0.0 mm 0.00 in0.0 mm
02:25 AM 43.0°F6.1°C 37.2°F2.9°C 80% Calm Calm 5.0 mph8.0 kmh 30.04 in1017.3 mb 0.00 in0.0 mm 0.00 in0.0 mm 0.00 in0.0 mm
02:30 AM 42.9°F6.1°C 37.1°F2.8°C 80% Calm Calm 3.0 mph4.8 kmh 30.04 in1017.3 mb 0.00 in0.0 mm 0.00 in0.0 mm 0.00 in0.0 mm
02:35 AM 42.9°F6.1°C 37.4°F3.0°C 81% 1.0 mph NW1.6 kmh NW 3.0 mph4.8 kmh 30.04 in1017.3 mb 0.00 in0.0 mm 0.00 in0.0 mm 0.00 in0.0 mm
02:40 AM 43.1°F6.2°C 37.6°F3.1°C 81% 2.0 mph NW3.2 kmh NW 5.0 mph8.0 kmh 30.04 in1017.3 mb 0.00 in0.0 mm 0.00 in0.0 mm 0.00 in0.0 mm
02:45 AM 43.2°F6.2°C 37.7°F3.2°C 81% 3.0 mph NW4.8 kmh NW 7.0 mph11.3 kmh 30.04 in1017.3 mb 0.00 in0.0 mm 0.00 in0.0 mm 0.00 in0.0 mm
02:50 AM 43.1°F6.2°C 37.6°F3.1°C 81% Calm Calm 3.0 mph4.8 kmh 30.04 in1017.3 mb 0.00 in0.0 mm 0.00 in0.0 mm 0.00 in0.0 mm
02:55 AM 42.9°F6.1°C 37.4°F3.0°C 81% Calm Calm 2.0 mph3.2 kmh 30.04 in1017.3 mb 0.00 in0.0 mm 0.00 in0.0 mm 0.00 in0.0 mm
03:00 AM 43.0°F6.1°C 37.5°F3.1°C 81% 3.0 mph NW4.8 kmh NW 4.0 mph6.4 kmh 30.05 in1017.6 mb 0.00 in0.0 mm 0.00 in0.0 mm 0.00 in0.0 mm
03:05 AM 43.1°F6.2°C 37.6°F3.1°C 81% 5.0 mph NW8.0 kmh NW 6.0 mph9.7 kmh 30.04 in1017.3 mb 0.00 in0.0 mm 0.00 in0.0 mm 0.00 in0.0 mm
03:10 AM 43.2°F6.2°C 37.7°F3.2°C 81% Calm Calm 5.0 mph8.0 kmh 30.04 in1017.3 mb 0.00 in0.0 mm 0.00 in0.0 mm 0.00 in0.0 mm
03:15 AM 43.0°F6.1°C 37.5°F3.1°C 81% Calm Calm 3.0 mph4.8 kmh 30.04 in1017.3 mb 0.00 in0.0 mm 0.00 in0.0 mm 0.00 in0.0 mm
03:20 AM 43.0°F6.1°C 37.5°F3.1°C 81% 1.0 mph NW1.6 kmh NW 4.0 mph6.4 kmh 30.04 in1017.3 mb 0.00 in0.0 mm 0.00 in0.0 mm 0.00 in0.0 mm
03:25 AM 42.9°F6.1°C 37.4°F3.0°C 81% 1.0 mph NW1.6 kmh NW 4.0 mph6.4 kmh 30.04 in1017.3 mb 0.00 in0.0 mm 0.00 in0.0 mm 0.00 in0.0 mm
03:30 AM 42.9°F6.1°C 37.4°F3.0°C 81% 1.0 mph NW1.6 kmh NW 2.0 mph3.2 kmh 30.04 in1017.3 mb 0.00 in0.0 mm 0.00 in0.0 mm 0.00 in0.0 mm
03:35 AM 43.1°F6.2°C 37.6°F3.1°C 81% 3.0 mph NW4.8 kmh NW 6.0 mph9.7 kmh 30.04 in1017.3 mb 0.00 in0.0 mm 0.00 in0.0 mm 0.00 in0.0 mm
03:40 AM 43.1°F6.2°C 37.3°F2.9°C 80% Calm Calm 4.0 mph6.4 kmh 30.04 in1017.3 mb 0.00 in0.0 mm 0.00 in0.0 mm 0.00 in0.0 mm
03:45 AM 43.0°F6.1°C 37.2°F2.9°C 80% 1.0 mph W1.6 kmh W 3.0 mph4.8 kmh 30.04 in1017.3 mb 0.00 in0.0 mm 0.00 in0.0 mm 0.00 in0.0 mm
03:50 AM 42.9°F6.1°C 37.1°F2.8°C 80% 1.0 mph WNW1.6 kmh WNW 3.0 mph4.8 kmh 30.04 in1017.3 mb 0.00 in0.0 mm 0.00 in0.0 mm 0.00 in0.0 mm
03:55 AM 42.9°F6.1°C 37.1°F2.8°C 80% Calm Calm 4.0 mph6.4 kmh 30.04 in1017.3 mb 0.00 in0.0 mm 0.00 in0.0 mm 0.00 in0.0 mm
04:00 AM 42.9°F6.1°C 37.1°F2.8°C 80% Calm Calm 2.0 mph3.2 kmh 30.04 in1017.3 mb 0.00 in0.0 mm 0.00 in0.0 mm 0.00 in0.0 mm
04:05 AM 42.9°F6.1°C 37.1°F2.8°C 80% Calm Calm 2.0 mph3.2 kmh 30.04 in1017.3 mb 0.00 in0.0 mm 0.00 in0.0 mm 0.00 in0.0 mm
04:10 AM 42.9°F6.1°C 37.1°F2.8°C 80% Calm Calm 2.0 mph3.2 kmh 30.04 in1017.3 mb 0.00 in0.0 mm 0.00 in0.0 mm 0.00 in0.0 mm
04:15 AM 43.1°F6.2°C 37.3°F2.9°C 80% 1.0 mph NW1.6 kmh NW 2.0 mph3.2 kmh 30.04 in1017.3 mb 0.00 in0.0 mm 0.00 in0.0 mm 0.00 in0.0 mm
04:20 AM 43.2°F6.2°C 37.1°F2.8°C 79% Calm Calm 2.0 mph3.2 kmh 30.04 in1017.3 mb 0.00 in0.0 mm 0.00 in0.0 mm 0.00 in0.0 mm
04:25 AM 43.4°F6.3°C 37.3°F2.9°C 79% 4.0 mph NW6.4 kmh NW 7.0 mph11.3 kmh 30.04 in1017.3 mb 0.00 in0.0 mm 0.00 in0.0 mm 0.00 in0.0 mm
04:30 AM 44.1°F6.7°C 37.3°F2.9°C 77% 2.0 mph NW3.2 kmh NW 8.0 mph12.9 kmh 30.03 in1016.9 mb 0.00 in0.0 mm 0.00 in0.0 mm 0.00 in0.0 mm
04:35 AM 44.0°F6.7°C 36.9°F2.7°C 76% Calm Calm 5.0 mph8.0 kmh 30.03 in1016.9 mb 0.00 in0.0 mm 0.00 in0.0 mm 0.00 in0.0 mm
04:40 AM 43.7°F6.5°C 36.6°F2.6°C 76% 2.0 mph NW3.2 kmh NW 5.0 mph8.0 kmh 30.03 in1016.9 mb 0.00 in0.0 mm 0.00 in0.0 mm 0.00 in0.0 mm
04:45 AM 43.7°F6.5°C 36.6°F2.6°C 76% 3.0 mph NW4.8 kmh NW 5.0 mph8.0 kmh 30.03 in1016.9 mb 0.00 in0.0 mm 0.00 in0.0 mm 0.00 in0.0 mm
04:50 AM 43.8°F6.6°C 36.7°F2.6°C 76% 2.0 mph N3.2 kmh N 4.0 mph6.4 kmh 30.03 in1016.9 mb 0.00 in0.0 mm 0.00 in0.0 mm 0.00 in0.0 mm
04:55 AM 43.7°F6.5°C 36.3°F2.4°C 75% 5.0 mph NNW8.0 kmh NNW 5.0 mph8.0 kmh 30.03 in1016.9 mb 0.00 in0.0 mm 0.00 in0.0 mm 0.00 in0.0 mm
05:00 AM 43.4°F6.3°C 36.3°F2.4°C 76% 4.0 mph NNW6.4 kmh NNW 6.0 mph9.7 kmh 30.02 in1016.6 mb 0.00 in0.0 mm 0.00 in0.0 mm 0.00 in0.0 mm
05:05 AM 43.2°F6.2°C 36.1°F2.3°C 76% Calm Calm 5.0 mph8.0 kmh 30.02 in1016.6 mb 0.00 in0.0 mm 0.00 in0.0 mm 0.00 in0.0 mm
05:10 AM 42.9°F6.1°C 36.1°F2.3°C 77% 1.0 mph NW1.6 kmh NW 4.0 mph6.4 kmh 30.02 in1016.6 mb 0.00 in0.0 mm 0.00 in0.0 mm 0.00 in0.0 mm
05:15 AM 42.8°F6.0°C 36.0°F2.2°C 77% Calm Calm 4.0 mph6.4 kmh 30.03 in1016.9 mb 0.00 in0.0 mm 0.00 in0.0 mm 0.00 in0.0 mm
05:20 AM 42.5°F5.8°C 35.8°F2.1°C 77% 2.0 mph NW3.2 kmh NW 3.0 mph4.8 kmh 30.03 in1016.9 mb 0.00 in0.0 mm 0.00 in0.0 mm 0.00 in0.0 mm
05:25 AM 42.4°F5.8°C 36.0°F2.2°C 78% 1.0 mph NW1.6 kmh NW 3.0 mph4.8 kmh 30.03 in1016.9 mb 0.00 in0.0 mm 0.00 in0.0 mm 0.00 in0.0 mm
05:30 AM 42.4°F5.8°C 36.0°F2.2°C 78% 4.0 mph NNW6.4 kmh NNW 4.0 mph6.4 kmh 30.03 in1016.9 mb 0.00 in0.0 mm 0.00 in0.0 mm 0.00 in0.0 mm
05:35 AM 42.5°F5.8°C 36.1°F2.3°C 78% 1.0 mph NNW1.6 kmh NNW 3.0 mph4.8 kmh 30.03 in1016.9 mb 0.00 in0.0 mm 0.00 in0.0 mm 0.00 in0.0 mm
05:40 AM 42.2°F5.7°C 35.8°F2.1°C 78% 1.0 mph NW1.6 kmh NW 2.0 mph3.2 kmh 30.03 in1016.9 mb 0.00 in0.0 mm 0.00 in0.0 mm 0.00 in0.0 mm
05:45 AM 42.0°F5.6°C 35.9°F2.2°C 79% 1.0 mph NW1.6 kmh NW 3.0 mph4.8 kmh 30.03 in1016.9 mb 0.00 in0.0 mm 0.00 in0.0 mm 0.00 in0.0 mm
05:50 AM 42.0°F5.6°C 35.9°F2.2°C 79% 1.0 mph NW1.6 kmh NW 3.0 mph4.8 kmh 30.03 in1016.9 mb 0.00 in0.0 mm 0.00 in0.0 mm 0.00 in0.0 mm
05:55 AM 41.8°F5.4°C 35.7°F2.1°C 79% Calm Calm 2.0 mph3.2 kmh 30.03 in1016.9 mb 0.00 in0.0 mm 0.00 in0.0 mm 0.00 in0.0 mm
06:00 AM 41.7°F5.4°C 35.6°F2.0°C 79% 1.0 mph NW1.6 kmh NW 3.0 mph4.8 kmh 30.03 in1016.9 mb 0.00 in0.0 mm 0.00 in0.0 mm 0.00 in0.0 mm
06:05 AM 41.6°F5.3°C 35.8°F2.1°C 80% Calm Calm 2.0 mph3.2 kmh 30.04 in1017.3 mb 0.00 in0.0 mm 0.00 in0.0 mm 0.00 in0.0 mm
06:10 AM 41.5°F5.3°C 35.7°F2.1°C 80% 1.0 mph WNW1.6 kmh WNW 2.0 mph3.2 kmh 30.04 in1017.3 mb 0.00 in0.0 mm 0.00 in0.0 mm 0.00 in0.0 mm
06:15 AM 41.5°F5.3°C 35.7°F2.1°C 80% 1.0 mph NW1.6 kmh NW 5.0 mph8.0 kmh 30.04 in1017.3 mb 0.00 in0.0 mm 0.00 in0.0 mm 0.00 in0.0 mm
06:20 AM 41.5°F5.3°C 35.7°F2.1°C 80% 2.0 mph NW3.2 kmh NW 2.0 mph3.2 kmh 30.04 in1017.3 mb 0.00 in0.0 mm 0.00 in0.0 mm 0.00 in0.0 mm
06:25 AM 41.5°F5.3°C 35.7°F2.1°C 80% 2.0 mph NW3.2 kmh NW 4.0 mph6.4 kmh 30.04 in1017.3 mb 0.00 in0.0 mm 0.00 in0.0 mm 0.00 in0.0 mm
06:30 AM 41.5°F5.3°C 35.7°F2.1°C 80% 1.0 mph NW1.6 kmh NW 4.0 mph6.4 kmh 30.05 in1017.6 mb 0.00 in0.0 mm 0.00 in0.0 mm 0.00 in0.0 mm
06:35 AM 41.4°F5.2°C 35.7°F2.1°C 80% 2.0 mph NW3.2 kmh NW 5.0 mph8.0 kmh 30.05 in1017.6 mb 0.00 in0.0 mm 0.00 in0.0 mm 0.00 in0.0 mm
06:40 AM 41.2°F5.1°C 35.5°F1.9°C 80% 1.0 mph NW1.6 kmh NW 4.0 mph6.4 kmh 30.05 in1017.6 mb 0.00 in0.0 mm 0.00 in0.0 mm 0.00 in0.0 mm
06:45 AM 41.0°F5.0°C 35.3°F1.8°C 80% 3.0 mph NW4.8 kmh NW 4.0 mph6.4 kmh 30.05 in1017.6 mb 0.00 in0.0 mm 0.00 in0.0 mm 0.00 in0.0 mm
06:51 AM 40.9°F4.9°C 35.5°F1.9°C 81% 2.0 mph NW3.2 kmh NW 5.0 mph8.0 kmh 30.04 in1017.3 mb 0.00 in0.0 mm 0.00 in0.0 mm 0.00 in0.0 mm
06:55 AM 40.9°F4.9°C 35.2°F1.8°C 80% 4.0 mph NNE6.4 kmh NNE 5.0 mph8.0 kmh 30.04 in1017.3 mb 0.00 in0.0 mm 0.00 in0.0 mm 0.00 in0.0 mm
07:00 AM 40.9°F4.9°C 35.2°F1.8°C 80% 3.0 mph NW4.8 kmh NW 6.0 mph9.7 kmh 30.04 in1017.3 mb 0.00 in0.0 mm 0.00 in0.0 mm 0.00 in0.0 mm
07:05 AM 40.8°F4.9°C 35.1°F1.7°C 80% 4.0 mph N6.4 kmh N 5.0 mph8.0 kmh 30.04 in1017.3 mb 0.00 in0.0 mm 0.00 in0.0 mm 0.00 in0.0 mm
07:10 AM 40.8°F4.9°C 35.1°F1.7°C 80% 1.0 mph NW1.6 kmh NW 4.0 mph6.4 kmh 30.04 in1017.3 mb 0.00 in0.0 mm 0.00 in0.0 mm 0.00 in0.0 mm
07:15 AM 40.7°F4.8°C 35.0°F1.7°C 80% 1.0 mph NW1.6 kmh NW 3.0 mph4.8 kmh 30.04 in1017.3 mb 0.00 in0.0 mm 0.00 in0.0 mm 0.00 in0.0 mm
07:20 AM 40.6°F4.8°C 34.9°F1.6°C 80% 1.0 mph NW1.6 kmh NW 4.0 mph6.4 kmh 30.04 in1017.3 mb 0.00 in0.0 mm 0.00 in0.0 mm 0.00 in0.0 mm
07:25 AM 40.6°F4.8°C 34.9°F1.6°C 80% Calm Calm 3.0 mph4.8 kmh 30.04 in1017.3 mb 0.00 in0.0 mm 0.00 in0.0 mm 0.00 in0.0 mm
07:30 AM 40.4°F4.7°C 34.7°F1.5°C 80% 2.0 mph NW3.2 kmh NW 4.0 mph6.4 kmh 30.05 in1017.6 mb 0.00 in0.0 mm 0.00 in0.0 mm 0.00 in0.0 mm
07:35 AM 40.3°F4.6°C 34.6°F1.4°C 80% Calm Calm 3.0 mph4.8 kmh 30.05 in1017.6 mb 0.00 in0.0 mm 0.00 in0.0 mm 0.00 in0.0 mm
07:40 AM 40.2°F4.6°C 34.5°F1.4°C 80% 3.0 mph NW4.8 kmh NW 4.0 mph6.4 kmh 30.05 in1017.6 mb 0.00 in0.0 mm 0.00 in0.0 mm 0.00 in0.0 mm
07:45 AM 40.4°F4.7°C 34.7°F1.5°C 80% Calm Calm 4.0 mph6.4 kmh 30.05 in1017.6 mb 0.00 in0.0 mm 0.00 in0.0 mm 0.00 in0.0 mm
07:50 AM 40.5°F4.7°C 34.8°F1.6°C 80% 1.0 mph NW1.6 kmh NW 3.0 mph4.8 kmh 30.04 in1017.3 mb 0.00 in0.0 mm 0.00 in0.0 mm 0.00 in0.0 mm
07:55 AM 40.6°F4.8°C 34.6°F1.4°C 79% 2.0 mph NW3.2 kmh NW 3.0 mph4.8 kmh 30.04 in1017.3 mb 0.00 in0.0 mm 0.00 in0.0 mm 0.00 in0.0 mm
08:00 AM 40.6°F4.8°C 34.6°F1.4°C 79% 2.0 mph NW3.2 kmh NW 4.0 mph6.4 kmh 30.03 in1016.9 mb 0.00 in0.0 mm 0.00 in0.0 mm 0.00 in0.0 mm
08:05 AM 40.8°F4.9°C 34.8°F1.6°C 79% 2.0 mph NW3.2 kmh NW 3.0 mph4.8 kmh 30.03 in1016.9 mb 0.00 in0.0 mm 0.00 in0.0 mm 0.00 in0.0 mm
08:10 AM 41.0°F5.0°C 34.6°F1.4°C 78% Calm Calm 3.0 mph4.8 kmh 30.04 in1017.3 mb 0.00 in0.0 mm 0.00 in0.0 mm 0.00 in0.0 mm
08:15 AM 41.0°F5.0°C 34.6°F1.4°C 78% Calm Calm 1.0 mph1.6 kmh 30.04 in1017.3 mb 0.00 in0.0 mm 0.00 in0.0 mm 0.00 in0.0 mm
08:20 AM 41.2°F5.1°C 34.8°F1.6°C 78% 2.0 mph NNW3.2 kmh NNW 3.0 mph4.8 kmh 30.04 in1017.3 mb 0.00 in0.0 mm 0.00 in0.0 mm 0.00 in0.0 mm
08:25 AM 42.0°F5.6°C 35.6°F2.0°C 78% 2.0 mph NW3.2 kmh NW 3.0 mph4.8 kmh 30.04 in1017.3 mb 0.00 in0.0 mm 0.00 in0.0 mm 0.00 in0.0 mm
08:30 AM 42.7°F5.9°C 35.6°F2.0°C 76% 1.0 mph NW1.6 kmh NW 2.0 mph3.2 kmh 30.04 in1017.3 mb 0.00 in0.0 mm 0.00 in0.0 mm 0.00 in0.0 mm
08:35 AM 43.6°F6.4°C 36.2°F2.3°C 75% Calm Calm 1.0 mph1.6 kmh 30.04 in1017.3 mb 0.00 in0.0 mm 0.00 in0.0 mm 0.00 in0.0 mm
08:40 AM 44.5°F6.9°C 37.4°F3.0°C 76% Calm Calm -- 30.03 in1016.9 mb 0.00 in0.0 mm 0.00 in0.0 mm 0.00 in0.0 mm
08:45 AM 45.5°F7.5°C 37.7°F3.2°C 74% Calm Calm 1.0 mph1.6 kmh 30.04 in1017.3 mb 0.00 in0.0 mm 0.00 in0.0 mm 0.00 in0.0 mm
08:50 AM 46.2°F7.9°C 37.3°F2.9°C 71% 3.0 mph E4.8 kmh E 4.0 mph6.4 kmh 30.03 in1016.9 mb 0.00 in0.0 mm 0.00 in0.0 mm 0.00 in0.0 mm
08:55 AM 45.6°F7.6°C 36.3°F2.4°C 70% 6.0 mph E9.7 kmh E 7.0 mph11.3 kmh 30.03 in1016.9 mb 0.00 in0.0 mm 0.00 in0.0 mm 0.00 in0.0 mm
09:00 AM 44.7°F7.1°C 35.1°F1.7°C 69% 4.0 mph E6.4 kmh E 8.0 mph12.9 kmh 30.04 in1017.3 mb 0.00 in0.0 mm 0.00 in0.0 mm 0.00 in0.0 mm
09:05 AM 44.9°F7.2°C 35.3°F1.8°C 69% 5.0 mph E8.0 kmh E 5.0 mph8.0 kmh 30.04 in1017.3 mb 0.00 in0.0 mm 0.00 in0.0 mm 0.00 in0.0 mm
09:10 AM 45.7°F7.6°C 35.3°F1.8°C 67% 5.0 mph E8.0 kmh E 5.0 mph8.0 kmh 30.05 in1017.6 mb 0.00 in0.0 mm 0.00 in0.0 mm 0.00 in0.0 mm
09:15 AM 46.5°F8.1°C 34.9°F1.6°C 64% 4.0 mph SE6.4 kmh SE 6.0 mph9.7 kmh 30.04 in1017.3 mb 0.00 in0.0 mm 0.00 in0.0 mm 0.00 in0.0 mm
09:20 AM 46.5°F8.1°C 34.5°F1.4°C 63% 3.0 mph SE4.8 kmh SE 8.0 mph12.9 kmh 30.03 in1016.9 mb 0.00 in0.0 mm 0.00 in0.0 mm 0.00 in0.0 mm
09:25 AM 46.5°F8.1°C 34.9°F1.6°C 64% 5.0 mph SE8.0 kmh SE 7.0 mph11.3 kmh 30.03 in1016.9 mb 0.00 in0.0 mm 0.00 in0.0 mm 0.00 in0.0 mm
09:30 AM 46.7°F8.2°C 35.1°F1.7°C 64% 2.0 mph SE3.2 kmh SE 6.0 mph9.7 kmh 30.03 in1016.9 mb 0.00 in0.0 mm 0.00 in0.0 mm 0.00 in0.0 mm
09:35 AM 47.2°F8.4°C 34.8°F1.6°C 62% 2.0 mph SE3.2 kmh SE 5.0 mph8.0 kmh 30.03 in1016.9 mb 0.00 in0.0 mm 0.00 in0.0 mm 0.00 in0.0 mm
09:40 AM 47.8°F8.8°C 35.0°F1.7°C 61% 3.0 mph ESE4.8 kmh ESE 6.0 mph9.7 kmh 30.04 in1017.3 mb 0.00 in0.0 mm 0.00 in0.0 mm 0.00 in0.0 mm
09:45 AM 48.4°F9.1°C 35.5°F1.9°C 61% 3.0 mph SE4.8 kmh SE 6.0 mph9.7 kmh 30.03 in1016.9 mb 0.00 in0.0 mm 0.00 in0.0 mm 0.00 in0.0 mm
09:50 AM 48.9°F9.4°C 35.6°F2.0°C 60% 5.0 mph SE8.0 kmh SE 7.0 mph11.3 kmh 30.03 in1016.9 mb 0.00 in0.0 mm 0.00 in0.0 mm 0.00 in0.0 mm
09:55 AM 49.3°F9.6°C 35.5°F1.9°C 59% 5.0 mph SE8.0 kmh SE 8.0 mph12.9 kmh 30.03 in1016.9 mb 0.00 in0.0 mm 0.00 in0.0 mm 0.00 in0.0 mm
10:00 AM 49.8°F9.9°C 35.6°F2.0°C 58% 4.0 mph SE6.4 kmh SE 7.0 mph11.3 kmh 30.03 in1016.9 mb 0.00 in0.0 mm 0.00 in0.0 mm 0.00 in0.0 mm
10:05 AM 50.4°F10.2°C 36.6°F2.6°C 59% 7.0 mph SE11.3 kmh SE 7.0 mph11.3 kmh 30.02 in1016.6 mb 0.00 in0.0 mm 0.00 in0.0 mm 0.00 in0.0 mm
10:10 AM 50.8°F10.4°C 36.1°F2.3°C 57% 5.0 mph SSE8.0 kmh SSE 10.0 mph16.1 kmh 30.02 in1016.6 mb 0.00 in0.0 mm 0.00 in0.0 mm 0.00 in0.0 mm
10:15 AM 51.2°F10.7°C 36.4°F2.4°C 57% 5.0 mph SE8.0 kmh SE 9.0 mph14.5 kmh 30.02 in1016.6 mb 0.00 in0.0 mm 0.00 in0.0 mm 0.00 in0.0 mm
10:20 AM 51.8°F11.0°C 36.6°F2.6°C 56% 4.0 mph SE6.4 kmh SE 9.0 mph14.5 kmh 30.01 in1016.3 mb 0.00 in0.0 mm 0.00 in0.0 mm 0.00 in0.0 mm
10:25 AM 52.3°F11.3°C 37.0°F2.8°C 56% 10.0 mph SE16.1 kmh SE 10.0 mph16.1 kmh 30.02 in1016.6 mb 0.00 in0.0 mm 0.00 in0.0 mm 0.00 in0.0 mm
10:30 AM 52.7°F11.5°C 36.9°F2.7°C 55% 7.0 mph SE11.3 kmh SE 10.0 mph16.1 kmh 30.01 in1016.3 mb 0.00 in0.0 mm 0.00 in0.0 mm 0.00 in0.0 mm
10:35 AM 53.1°F11.7°C 37.3°F2.9°C 55% 5.0 mph SE8.0 kmh SE 12.0 mph19.3 kmh 30.02 in1016.6 mb 0.00 in0.0 mm 0.00 in0.0 mm 0.00 in0.0 mm
10:40 AM 53.0°F11.7°C 37.2°F2.9°C 55% 9.0 mph SE14.5 kmh SE 12.0 mph19.3 kmh 30.01 in1016.3 mb 0.00 in0.0 mm 0.00 in0.0 mm 0.00 in0.0 mm
10:45 AM 53.1°F11.7°C 36.8°F2.7°C 54% 9.0 mph SE14.5 kmh SE 11.0 mph17.7 kmh 30.01 in1016.3 mb 0.00 in0.0 mm 0.00 in0.0 mm 0.00 in0.0 mm
10:50 AM 53.4°F11.9°C 37.1°F2.8°C 54% 5.0 mph SSE8.0 kmh SSE 10.0 mph16.1 kmh 30.01 in1016.3 mb 0.00 in0.0 mm 0.00 in0.0 mm 0.00 in0.0 mm
10:55 AM 53.7°F12.1°C 36.4°F2.4°C 52% 10.0 mph SE16.1 kmh SE 12.0 mph19.3 kmh 30.01 in1016.3 mb 0.00 in0.0 mm 0.00 in0.0 mm 0.00 in0.0 mm
11:00 AM 53.8°F12.1°C 36.5°F2.5°C 52% 4.0 mph SE6.4 kmh SE 13.0 mph20.9 kmh 30.01 in1016.3 mb 0.00 in0.0 mm 0.00 in0.0 mm 0.00 in0.0 mm
11:05 AM 53.8°F12.1°C 36.0°F2.2°C 51% 10.0 mph ESE16.1 kmh ESE 12.0 mph19.3 kmh 30.01 in1016.3 mb 0.00 in0.0 mm 0.00 in0.0 mm 0.00 in0.0 mm
11:10 AM 53.7°F12.1°C 36.4°F2.4°C 52% 9.0 mph SSE14.5 kmh SSE 10.0 mph16.1 kmh 30.01 in1016.3 mb 0.00 in0.0 mm 0.00 in0.0 mm 0.00 in0.0 mm
11:15 AM 53.4°F11.9°C 36.7°F2.6°C 53% 9.0 mph SE14.5 kmh SE 11.0 mph17.7 kmh 30.00 in1015.9 mb 0.00 in0.0 mm 0.00 in0.0 mm 0.00 in0.0 mm
11:20 AM 53.2°F11.8°C 36.5°F2.5°C 53% 7.0 mph ESE11.3 kmh ESE 11.0 mph17.7 kmh 29.99 in1015.6 mb 0.00 in0.0 mm 0.00 in0.0 mm 0.00 in0.0 mm
11:25 AM 53.1°F11.7°C 35.9°F2.2°C 52% 8.0 mph SE12.9 kmh SE 11.0 mph17.7 kmh 30.00 in1015.9 mb 0.00 in0.0 mm 0.00 in0.0 mm 0.00 in0.0 mm
11:30 AM 53.2°F11.8°C 36.0°F2.2°C 52% 7.0 mph SE11.3 kmh SE 10.0 mph16.1 kmh 30.00 in1015.9 mb 0.00 in0.0 mm 0.00 in0.0 mm 0.00 in0.0 mm
11:35 AM 53.0°F11.7°C 35.3°F1.8°C 51% 8.0 mph SE12.9 kmh SE 14.0 mph22.5 kmh 29.99 in1015.6 mb 0.00 in0.0 mm 0.00 in0.0 mm 0.00 in0.0 mm
11:40 AM 52.8°F11.6°C 35.6°F2.0°C 52% 8.0 mph SE12.9 kmh SE 12.0 mph19.3 kmh 29.99 in1015.6 mb 0.00 in0.0 mm 0.00 in0.0 mm 0.00 in0.0 mm
11:45 AM 52.8°F11.6°C 36.6°F2.6°C 54% 9.0 mph SE14.5 kmh SE 10.0 mph16.1 kmh 29.98 in1015.2 mb 0.00 in0.0 mm 0.00 in0.0 mm 0.00 in0.0 mm
11:50 AM 52.6°F11.4°C 35.9°F2.2°C 53% 12.0 mph SE19.3 kmh SE 12.0 mph19.3 kmh 29.98 in1015.2 mb 0.00 in0.0 mm 0.00 in0.0 mm 0.00 in0.0 mm
11:55 AM 52.5°F11.4°C 35.3°F1.8°C 52% 9.0 mph ESE14.5 kmh ESE 12.0 mph19.3 kmh 29.96 in1014.6 mb 0.00 in0.0 mm 0.00 in0.0 mm 0.00 in0.0 mm
12:00 PM 52.3°F11.3°C 35.2°F1.8°C 52% 11.0 mph SE17.7 kmh SE 15.0 mph24.1 kmh 29.96 in1014.6 mb 0.00 in0.0 mm 0.00 in0.0 mm 0.00 in0.0 mm
12:05 PM 52.1°F11.2°C 35.4°F1.9°C 53% 7.0 mph SE11.3 kmh SE 13.0 mph20.9 kmh 29.96 in1014.6 mb 0.00 in0.0 mm 0.00 in0.0 mm 0.00 in0.0 mm
12:10 PM 52.1°F11.2°C 35.4°F1.9°C 53% 8.0 mph SE12.9 kmh SE 14.0 mph22.5 kmh 29.96 in1014.6 mb 0.00 in0.0 mm 0.00 in0.0 mm 0.00 in0.0 mm
12:15 PM 52.2°F11.2°C 36.0°F2.2°C 54% 8.0 mph SE12.9 kmh SE 12.0 mph19.3 kmh 29.95 in1014.2 mb 0.00 in0.0 mm 0.00 in0.0 mm 0.00 in0.0 mm
12:20 PM 52.4°F11.3°C 36.7°F2.6°C 55% 8.0 mph SSE12.9 kmh SSE 10.0 mph16.1 kmh 29.95 in1014.2 mb 0.00 in0.0 mm 0.00 in0.0 mm 0.00 in0.0 mm
12:25 PM 52.6°F11.4°C 37.3°F2.9°C 56% 8.0 mph SE12.9 kmh SE 12.0 mph19.3 kmh 29.95 in1014.2 mb 0.00 in0.0 mm 0.00 in0.0 mm 0.00 in0.0 mm
12:30 PM 52.7°F11.5°C 37.8°F3.2°C 57% 5.0 mph S8.0 kmh S 10.0 mph16.1 kmh 29.96 in1014.6 mb 0.00 in0.0 mm 0.00 in0.0 mm 0.00 in0.0 mm
12:35 PM 52.7°F11.5°C 38.3°F3.5°C 58% 2.0 mph SSE3.2 kmh SSE 5.0 mph8.0 kmh 29.95 in1014.2 mb 0.00 in0.0 mm 0.00 in0.0 mm 0.00 in0.0 mm
12:40 PM 52.8°F11.6°C 38.4°F3.6°C 58% 7.0 mph SE11.3 kmh SE 8.0 mph12.9 kmh 29.95 in1014.2 mb 0.00 in0.0 mm 0.00 in0.0 mm 0.00 in0.0 mm
12:45 PM 52.7°F11.5°C 38.7°F3.7°C 59% 7.0 mph ESE11.3 kmh ESE 15.0 mph24.1 kmh 29.95 in1014.2 mb 0.00 in0.0 mm 0.00 in0.0 mm 0.00 in0.0 mm
12:50 PM 52.6°F11.4°C 38.6°F3.7°C 59% 9.0 mph SE14.5 kmh SE 11.0 mph17.7 kmh 29.95 in1014.2 mb 0.00 in0.0 mm 0.00 in0.0 mm 0.00 in0.0 mm
12:55 PM 52.7°F11.5°C 39.2°F4.0°C 60% 7.0 mph ESE11.3 kmh ESE 11.0 mph17.7 kmh 29.95 in1014.2 mb 0.00 in0.0 mm 0.00 in0.0 mm 0.00 in0.0 mm
01:00 PM 52.9°F11.6°C 39.8°F4.3°C 61% 14.0 mph SE22.5 kmh SE 14.0 mph22.5 kmh 29.94 in1013.9 mb 0.00 in0.0 mm 0.00 in0.0 mm 0.00 in0.0 mm
01:05 PM 53.0°F11.7°C 39.9°F4.4°C 61% 10.0 mph ESE16.1 kmh ESE 17.0 mph27.4 kmh 29.94 in1013.9 mb 0.00 in0.0 mm 0.00 in0.0 mm 0.00 in0.0 mm
01:10 PM 53.0°F11.7°C 40.3°F4.6°C 62% 12.0 mph SE19.3 kmh SE 15.0 mph24.1 kmh 29.94 in1013.9 mb 0.00 in0.0 mm 0.00 in0.0 mm 0.00 in0.0 mm
01:15 PM 53.0°F11.7°C 40.3°F4.6°C 62% 17.0 mph S27.4 kmh S 18.0 mph29.0 kmh 29.93 in1013.5 mb 0.00 in0.0 mm 0.00 in0.0 mm 0.00 in0.0 mm
01:20 PM 53.0°F11.7°C 41.1°F5.1°C 64% 11.0 mph SE17.7 kmh SE 16.0 mph25.7 kmh 29.92 in1013.2 mb 0.00 in0.0 mm 0.00 in0.0 mm 0.00 in0.0 mm
01:25 PM 52.9°F11.6°C 41.0°F5.0°C 64% 15.0 mph SSE24.1 kmh SSE 19.0 mph30.6 kmh 29.91 in1012.9 mb 0.00 in0.0 mm 0.00 in0.0 mm 0.00 in0.0 mm
01:30 PM 52.8°F11.6°C 40.9°F4.9°C 64% 10.0 mph SE16.1 kmh SE 14.0 mph22.5 kmh 29.92 in1013.2 mb 0.00 in0.0 mm 0.00 in0.0 mm 0.00 in0.0 mm
01:35 PM 52.8°F11.6°C 40.9°F4.9°C 64% 12.0 mph SE19.3 kmh SE 16.0 mph25.7 kmh 29.92 in1013.2 mb 0.00 in0.0 mm 0.00 in0.0 mm 0.00 in0.0 mm
01:40 PM 52.7°F11.5°C 40.8°F4.9°C 64% 9.0 mph SE14.5 kmh SE 15.0 mph24.1 kmh 29.91 in1012.9 mb 0.00 in0.0 mm 0.00 in0.0 mm 0.00 in0.0 mm
01:45 PM 52.8°F11.6°C 41.3°F5.2°C 65% 10.0 mph SE16.1 kmh SE 15.0 mph24.1 kmh 29.91 in1012.9 mb 0.00 in0.0 mm 0.00 in0.0 mm 0.00 in0.0 mm
01:50 PM 52.8°F11.6°C 41.3°F5.2°C 65% 15.0 mph SE24.1 kmh SE 15.0 mph24.1 kmh 29.90 in1012.5 mb 0.00 in0.0 mm 0.00 in0.0 mm 0.00 in0.0 mm
01:55 PM 52.9°F11.6°C 41.4°F5.2°C 65% 12.0 mph SE19.3 kmh SE 15.0 mph24.1 kmh 29.90 in1012.5 mb 0.00 in0.0 mm 0.00 in0.0 mm 0.00 in0.0 mm
02:00 PM 52.8°F11.6°C 41.3°F5.2°C 65% 13.0 mph SE20.9 kmh SE 19.0 mph30.6 kmh 29.89 in1012.2 mb 0.00 in0.0 mm 0.00 in0.0 mm 0.00 in0.0 mm
02:05 PM 52.8°F11.6°C 41.3°F5.2°C 65% 11.0 mph S17.7 kmh S 19.0 mph30.6 kmh 29.88 in1011.9 mb 0.00 in0.0 mm 0.00 in0.0 mm 0.00 in0.0 mm
02:10 PM 52.7°F11.5°C 41.6°F5.3°C 66% 9.0 mph E14.5 kmh E 20.0 mph32.2 kmh 29.87 in1011.5 mb 0.00 in0.0 mm 0.00 in0.0 mm 0.00 in0.0 mm
02:15 PM 52.6°F11.4°C 41.9°F5.5°C 67% 9.0 mph SE14.5 kmh SE 21.0 mph33.8 kmh 29.88 in1011.9 mb 0.00 in0.0 mm 0.00 in0.0 mm 0.00 in0.0 mm
02:20 PM 52.6°F11.4°C 42.3°F5.7°C 68% 12.0 mph S19.3 kmh S 17.0 mph27.4 kmh 29.87 in1011.5 mb 0.00 in0.0 mm 0.00 in0.0 mm 0.00 in0.0 mm
02:25 PM 52.6°F11.4°C 42.3°F5.7°C 68% 5.0 mph SSE8.0 kmh SSE 16.0 mph25.7 kmh 29.88 in1011.9 mb 0.00 in0.0 mm 0.00 in0.0 mm 0.00 in0.0 mm
02:30 PM 52.6°F11.4°C 42.7°F5.9°C 69% 12.0 mph E19.3 kmh E 16.0 mph25.7 kmh 29.87 in1011.5 mb 0.00 in0.0 mm 0.00 in0.0 mm 0.00 in0.0 mm
02:35 PM 52.6°F11.4°C 42.7°F5.9°C 69% 10.0 mph E16.1 kmh E 18.0 mph29.0 kmh 29.87 in1011.5 mb 0.00 in0.0 mm 0.00 in0.0 mm 0.00 in0.0 mm
02:40 PM 52.7°F11.5°C 43.1°F6.2°C 70% 9.0 mph ESE14.5 kmh ESE 14.0 mph22.5 kmh 29.88 in1011.9 mb 0.00 in0.0 mm 0.00 in0.0 mm 0.00 in0.0 mm
02:45 PM 52.7°F11.5°C 43.5°F6.4°C 71% 13.0 mph SE20.9 kmh SE 17.0 mph27.4 kmh 29.87 in1011.5 mb 0.00 in0.0 mm 0.00 in0.0 mm 0.00 in0.0 mm
02:50 PM 52.6°F11.4°C 44.1°F6.7°C 73% 10.0 mph SE16.1 kmh SE 21.0 mph33.8 kmh 29.87 in1011.5 mb 0.00 in0.0 mm 0.00 in0.0 mm 0.00 in0.0 mm
02:55 PM 52.6°F11.4°C 44.5°F6.9°C 74% 11.0 mph SE17.7 kmh SE 13.0 mph20.9 kmh 29.87 in1011.5 mb 0.00 in0.0 mm 0.00 in0.0 mm 0.00 in0.0 mm
03:00 PM 52.4°F11.3°C 44.3°F6.8°C 74% 10.0 mph SSE16.1 kmh SSE 15.0 mph24.1 kmh 29.86 in1011.2 mb 0.00 in0.0 mm 0.00 in0.0 mm 0.00 in0.0 mm
03:05 PM 52.2°F11.2°C 44.1°F6.7°C 74% 9.0 mph SE14.5 kmh SE 19.0 mph30.6 kmh 29.86 in1011.2 mb 0.00 in0.0 mm 0.00 in0.0 mm 0.00 in0.0 mm
03:10 PM 52.2°F11.2°C 44.1°F6.7°C 74% 10.0 mph SE16.1 kmh SE 14.0 mph22.5 kmh 29.86 in1011.2 mb 0.00 in0.0 mm 0.00 in0.0 mm 0.00 in0.0 mm
03:15 PM 52.2°F11.2°C 44.1°F6.7°C 74% 7.0 mph S11.3 kmh S 13.0 mph20.9 kmh 29.85 in1010.8 mb 0.00 in0.0 mm 0.00 in0.0 mm 0.00 in0.0 mm
03:20 PM 52.1°F11.2°C 44.0°F6.7°C 74% 8.0 mph SE12.9 kmh SE 17.0 mph27.4 kmh 29.84 in1010.5 mb 0.00 in0.0 mm 0.00 in0.0 mm 0.00 in0.0 mm
03:25 PM 52.1°F11.2°C 44.0°F6.7°C 74% 12.0 mph SE19.3 kmh SE 19.0 mph30.6 kmh 29.84 in1010.5 mb 0.00 in0.0 mm 0.00 in0.0 mm 0.00 in0.0 mm
03:30 PM 52.1°F11.2°C 44.0°F6.7°C 74% 9.0 mph SE14.5 kmh SE 14.0 mph22.5 kmh 29.85 in1010.8 mb 0.00 in0.0 mm 0.00 in0.0 mm 0.00 in0.0 mm
03:35 PM 52.1°F11.2°C 44.4°F6.9°C 75% 7.0 mph SSE11.3 kmh SSE 16.0 mph25.7 kmh 29.84 in1010.5 mb 0.00 in0.0 mm 0.00 in0.0 mm 0.00 in0.0 mm
03:40 PM 52.1°F11.2°C 44.7°F7.1°C 76% 13.0 mph S20.9 kmh S 14.0 mph22.5 kmh 29.83 in1010.2 mb 0.00 in0.0 mm 0.00 in0.0 mm 0.00 in0.0 mm
03:45 PM 52.1°F11.2°C 45.1°F7.3°C 77% 13.0 mph SE20.9 kmh SE 17.0 mph27.4 kmh 29.83 in1010.2 mb 0.00 in0.0 mm 0.00 in0.0 mm 0.00 in0.0 mm
03:50 PM 52.0°F11.1°C 45.3°F7.4°C 78% 9.0 mph SE14.5 kmh SE 14.0 mph22.5 kmh 29.83 in1010.2 mb 0.00 in0.0 mm 0.00 in0.0 mm 0.00 in0.0 mm
03:55 PM 52.0°F11.1°C 45.3°F7.4°C 78% 11.0 mph SSE17.7 kmh SSE 14.0 mph22.5 kmh 29.83 in1010.2 mb 0.00 in0.0 mm 0.00 in0.0 mm 0.00 in0.0 mm
04:00 PM 52.0°F11.1°C 45.3°F7.4°C 78% 9.0 mph SE14.5 kmh SE 16.0 mph25.7 kmh 29.82 in1009.8 mb 0.00 in0.0 mm 0.00 in0.0 mm 0.00 in0.0 mm
04:05 PM 52.0°F11.1°C 45.3°F7.4°C 78% 13.0 mph SE20.9 kmh SE 14.0 mph22.5 kmh 29.83 in1010.2 mb 0.00 in0.0 mm 0.00 in0.0 mm 0.00 in0.0 mm
04:10 PM 52.1°F11.2°C 45.4°F7.4°C 78% 6.0 mph SE9.7 kmh SE 13.0 mph20.9 kmh 29.83 in1010.2 mb 0.00 in0.0 mm 0.00 in0.0 mm 0.00 in0.0 mm
04:15 PM 52.1°F11.2°C 45.4°F7.4°C 78% 12.0 mph ESE19.3 kmh ESE 16.0 mph25.7 kmh 29.82 in1009.8 mb 0.00 in0.0 mm 0.00 in0.0 mm 0.00 in0.0 mm
04:20 PM 52.2°F11.2°C 45.8°F7.7°C 79% 8.0 mph SE12.9 kmh SE 16.0 mph25.7 kmh 29.82 in1009.8 mb 0.00 in0.0 mm 0.00 in0.0 mm 0.00 in0.0 mm
04:25 PM 52.2°F11.2°C 45.8°F7.7°C 79% 14.0 mph SE22.5 kmh SE 17.0 mph27.4 kmh 29.81 in1009.5 mb 0.00 in0.0 mm 0.00 in0.0 mm 0.00 in0.0 mm
04:30 PM 52.3°F11.3°C 45.9°F7.7°C 79% 9.0 mph SE14.5 kmh SE 16.0 mph25.7 kmh 29.81 in1009.5 mb 0.00 in0.0 mm 0.00 in0.0 mm 0.00 in0.0 mm
04:35 PM 52.3°F11.3°C 46.3°F7.9°C 80% 6.0 mph SE9.7 kmh SE 14.0 mph22.5 kmh 29.81 in1009.5 mb 0.00 in0.0 mm 0.00 in0.0 mm 0.00 in0.0 mm
04:40 PM 52.3°F11.3°C 46.3°F7.9°C 80% 12.0 mph E19.3 kmh E 14.0 mph22.5 kmh 29.80 in1009.1 mb 0.00 in0.0 mm 0.00 in0.0 mm 0.00 in0.0 mm
04:45 PM 52.4°F11.3°C 46.4°F8.0°C 80% 13.0 mph SE20.9 kmh SE 17.0 mph27.4 kmh 29.80 in1009.1 mb 0.00 in0.0 mm 0.00 in0.0 mm 0.00 in0.0 mm
04:50 PM 52.3°F11.3°C 46.6°F8.1°C 81% 11.0 mph ESE17.7 kmh ESE 15.0 mph24.1 kmh 29.80 in1009.1 mb 0.00 in0.0 mm 0.00 in0.0 mm 0.00 in0.0 mm
04:55 PM 52.3°F11.3°C 46.6°F8.1°C 81% 13.0 mph SE20.9 kmh SE 15.0 mph24.1 kmh 29.79 in1008.8 mb 0.00 in0.0 mm 0.00 in0.0 mm 0.00 in0.0 mm
05:00 PM 52.4°F11.3°C 46.7°F8.2°C 81% 8.0 mph SSE12.9 kmh SSE 16.0 mph25.7 kmh 29.79 in1008.8 mb 0.00 in0.0 mm 0.00 in0.0 mm 0.00 in0.0 mm
05:05 PM 52.4°F11.3°C 47.0°F8.3°C 82% 12.0 mph SE19.3 kmh SE 15.0 mph24.1 kmh 29.79 in1008.8 mb 0.00 in0.0 mm 0.00 in0.0 mm 0.00 in0.0 mm
05:10 PM 52.3°F11.3°C 46.9°F8.3°C 82% 15.0 mph SE24.1 kmh SE 19.0 mph30.6 kmh 29.78 in1008.5 mb 0.00 in0.0 mm 0.00 in0.0 mm 0.00 in0.0 mm
05:15 PM 52.2°F11.2°C 46.8°F8.2°C 82% 12.0 mph ESE19.3 kmh ESE 15.0 mph24.1 kmh 29.78 in1008.5 mb 0.00 in0.0 mm 0.00 in0.0 mm 0.00 in0.0 mm
05:20 PM 52.1°F11.2°C 47.0°F8.3°C 83% 7.0 mph SSW11.3 kmh SSW 16.0 mph25.7 kmh 29.77 in1008.1 mb 0.00 in0.0 mm 0.00 in0.0 mm 0.00 in0.0 mm
05:25 PM 52.1°F11.2°C 47.0°F8.3°C 83% 4.0 mph SSE6.4 kmh SSE 12.0 mph19.3 kmh 29.78 in1008.5 mb 0.00 in0.0 mm 0.00 in0.0 mm 0.00 in0.0 mm
05:30 PM 52.1°F11.2°C 47.4°F8.6°C 84% 9.0 mph SE14.5 kmh SE 13.0 mph20.9 kmh 29.77 in1008.1 mb 0.00 in0.0 mm 0.00 in0.0 mm 0.00 in0.0 mm
05:35 PM 52.1°F11.2°C 47.4°F8.6°C 84% 6.0 mph SE9.7 kmh SE 14.0 mph22.5 kmh 29.76 in1007.8 mb 0.00 in0.0 mm 0.00 in0.0 mm 0.00 in0.0 mm
05:40 PM 52.1°F11.2°C 47.7°F8.7°C 85% 3.0 mph SE4.8 kmh SE 15.0 mph24.1 kmh 29.76 in1007.8 mb 0.00 in0.0 mm 0.00 in0.0 mm 0.00 in0.0 mm
05:45 PM 52.1°F11.2°C 47.7°F8.7°C 85% 4.0 mph S6.4 kmh S 12.0 mph19.3 kmh 29.76 in1007.8 mb 0.00 in0.0 mm 0.00 in0.0 mm 0.00 in0.0 mm
05:50 PM 52.2°F11.2°C 47.8°F8.8°C 85% 4.0 mph SSE6.4 kmh SSE 7.0 mph11.3 kmh 29.76 in1007.8 mb 0.00 in0.0 mm 0.00 in0.0 mm 0.00 in0.0 mm
05:55 PM 52.2°F11.2°C 48.1°F8.9°C 86% 1.0 mph SSE1.6 kmh SSE 7.0 mph11.3 kmh 29.76 in1007.8 mb 0.00 in0.0 mm 0.00 in0.0 mm 0.00 in0.0 mm
06:00 PM 52.4°F11.3°C 48.3°F9.1°C 86% 11.0 mph ESE17.7 kmh ESE 12.0 mph19.3 kmh 29.76 in1007.8 mb 0.00 in0.0 mm 0.00 in0.0 mm 0.00 in0.0 mm
06:05 PM 52.4°F11.3°C 48.3°F9.1°C 86% 15.0 mph SE24.1 kmh SE 19.0 mph30.6 kmh 29.74 in1007.1 mb 0.00 in0.0 mm 0.00 in0.0 mm 0.00 in0.0 mm
06:10 PM 52.4°F11.3°C 48.6°F9.2°C 87% 19.0 mph SE30.6 kmh SE 19.0 mph30.6 kmh 29.74 in1007.1 mb 0.00 in0.0 mm 0.00 in0.0 mm 0.00 in0.0 mm
06:15 PM 52.4°F11.3°C 48.6°F9.2°C 87% 10.0 mph SSE16.1 kmh SSE 21.0 mph33.8 kmh 29.73 in1006.8 mb 0.00 in0.0 mm 0.00 in0.0 mm 0.00 in0.0 mm
06:20 PM 52.5°F11.4°C 48.7°F9.3°C 87% 8.0 mph SE12.9 kmh SE 17.0 mph27.4 kmh 29.73 in1006.8 mb 0.00 in0.0 mm 0.00 in0.0 mm 0.00 in0.0 mm
06:25 PM 52.6°F11.4°C 49.1°F9.5°C 88% 12.0 mph SE19.3 kmh SE 19.0 mph30.6 kmh 29.74 in1007.1 mb 0.00 in0.0 mm 0.00 in0.0 mm 0.00 in0.0 mm
06:30 PM 52.7°F11.5°C 49.2°F9.6°C 88% 10.0 mph SSE16.1 kmh SSE 14.0 mph22.5 kmh 29.74 in1007.1 mb 0.00 in0.0 mm 0.00 in0.0 mm 0.00 in0.0 mm
06:35 PM 52.7°F11.5°C 49.2°F9.6°C 88% 10.0 mph SE16.1 kmh SE 13.0 mph20.9 kmh 29.75 in1007.5 mb 0.00 in0.0 mm 0.00 in0.0 mm 0.00 in0.0 mm
06:40 PM 52.8°F11.6°C 49.3°F9.6°C 88% 5.0 mph SE8.0 kmh SE 12.0 mph19.3 kmh 29.75 in1007.5 mb 0.00 in0.0 mm 0.00 in0.0 mm 0.00 in0.0 mm
06:45 PM 52.8°F11.6°C 49.3°F9.6°C 88% 4.0 mph SSE6.4 kmh SSE 12.0 mph19.3 kmh 29.74 in1007.1 mb 0.00 in0.0 mm 0.00 in0.0 mm 0.00 in0.0 mm
06:50 PM 52.7°F11.5°C 49.2°F9.6°C 88% 4.0 mph SE6.4 kmh SE 10.0 mph16.1 kmh 29.74 in1007.1 mb 0.00 in0.0 mm 0.00 in0.0 mm 0.00 in0.0 mm
06:55 PM 52.6°F11.4°C 49.1°F9.5°C 88% 1.0 mph SSE1.6 kmh SSE 9.0 mph14.5 kmh 29.74 in1007.1 mb 0.00 in0.0 mm 0.00 in0.0 mm 0.00 in0.0 mm
07:00 PM 52.6°F11.4°C 49.1°F9.5°C 88% 4.0 mph SSE6.4 kmh SSE 8.0 mph12.9 kmh 29.74 in1007.1 mb 0.00 in0.0 mm 0.00 in0.0 mm 0.00 in0.0 mm
07:05 PM 52.6°F11.4°C 49.4°F9.7°C 89% 7.0 mph SE11.3 kmh SE 10.0 mph16.1 kmh 29.75 in1007.5 mb 0.00 in0.0 mm 0.00 in0.0 mm 0.00 in0.0 mm
07:10 PM 52.6°F11.4°C 49.4°F9.7°C 89% Calm Calm 8.0 mph12.9 kmh 29.75 in1007.5 mb 0.00 in0.0 mm 0.00 in0.0 mm 0.00 in0.0 mm
07:15 PM 52.5°F11.4°C 49.3°F9.6°C 89% Calm Calm 2.0 mph3.2 kmh 29.75 in1007.5 mb 0.00 in0.0 mm 0.00 in0.0 mm 0.00 in0.0 mm
07:20 PM 52.5°F11.4°C 49.3°F9.6°C 89% 4.0 mph ESE6.4 kmh ESE 7.0 mph11.3 kmh 29.75 in1007.5 mb 0.00 in0.0 mm 0.00 in0.0 mm 0.00 in0.0 mm
07:25 PM 52.6°F11.4°C 49.4°F9.7°C 89% 1.0 mph SE1.6 kmh SE 7.0 mph11.3 kmh 29.75 in1007.5 mb 0.00 in0.0 mm 0.00 in0.0 mm 0.00 in0.0 mm
07:30 PM 52.6°F11.4°C 49.4°F9.7°C 89% 2.0 mph E3.2 kmh E 4.0 mph6.4 kmh 29.76 in1007.8 mb 0.00 in0.0 mm 0.00 in0.0 mm 0.00 in0.0 mm
07:35 PM 52.5°F11.4°C 49.3°F9.6°C 89% 2.0 mph SSE3.2 kmh SSE 4.0 mph6.4 kmh 29.76 in1007.8 mb 0.00 in0.0 mm 0.00 in0.0 mm 0.00 in0.0 mm
07:40 PM 52.5°F11.4°C 49.3°F9.6°C 89% 3.0 mph S4.8 kmh S 8.0 mph12.9 kmh 29.75 in1007.5 mb 0.00 in0.0 mm 0.00 in0.0 mm 0.00 in0.0 mm
07:45 PM 52.6°F11.4°C 49.4°F9.7°C 89% Calm Calm 5.0 mph8.0 kmh 29.75 in1007.5 mb 0.00 in0.0 mm 0.00 in0.0 mm 0.00 in0.0 mm
07:50 PM 52.5°F11.4°C 49.3°F9.6°C 89% 2.0 mph SE3.2 kmh SE 3.0 mph4.8 kmh 29.75 in1007.5 mb 0.00 in0.0 mm 0.00 in0.0 mm 0.00 in0.0 mm
07:55 PM 52.7°F11.5°C 49.8°F9.9°C 90% 4.0 mph E6.4 kmh E 7.0 mph11.3 kmh 29.75 in1007.5 mb 0.00 in0.0 mm 0.00 in0.0 mm 0.00 in0.0 mm
08:00 PM 52.6°F11.4°C 49.4°F9.7°C 89% 3.0 mph SE4.8 kmh SE 4.0 mph6.4 kmh 29.75 in1007.5 mb 0.00 in0.0 mm 0.00 in0.0 mm 0.00 in0.0 mm
08:05 PM 52.5°F11.4°C 49.3°F9.6°C 89% Calm Calm 5.0 mph8.0 kmh 29.75 in1007.5 mb 0.00 in0.0 mm 0.00 in0.0 mm 0.00 in0.0 mm